Time;durP1;ratioP1;P1;durP2;ratioP2;P2;SDS_P1;SDS_P2;PMS_P1;PMS_P2;Temp;Humidity;BMP_temperature;BMP_pressure;BME280_temperature;BME280_humidity;BME280_pressure;Samples;Min_cycle;Max_cycle;Signal;HPM_P1;HPM_P2
2022/02/16 00:00:49;;;;;;;11.63;8.60;;;5.70;94.70;;;;;;5066635;28;20021;-84
2022/02/16 00:03:15;;;;;;;13.43;7.75;;;5.70;94.70;;;;;;5068726;28;20392;-84
2022/02/16 00:05:40;;;;;;;16.25;8.95;;;5.70;95.10;;;;;;5068184;28;20028;-84
2022/02/16 00:08:06;;;;;;;14.85;8.95;;;5.60;95.10;;;;;;5067862;28;20052;-84
2022/02/16 00:10:31;;;;;;;12.70;9.38;;;5.70;95.20;;;;;;5069181;28;20473;-83
2022/02/16 00:12:57;;;;;;;13.27;10.25;;;5.60;95.20;;;;;;5070630;28;20033;-83
2022/02/16 00:15:23;;;;;;;14.27;10.60;;;5.70;95.40;;;;;;5067888;28;20031;-84
2022/02/16 00:17:51;;;;;;;14.60;10.38;;;5.60;95.50;;;;;;5070209;28;20527;-83
2022/02/16 00:20:17;;;;;;;14.32;9.95;;;5.60;95.60;;;;;;5065102;28;20450;-83
2022/02/16 00:22:42;;;;;;;18.02;11.40;;;5.60;95.70;;;;;;5068542;28;20044;-83
2022/02/16 00:25:08;;;;;;;15.95;11.48;;;5.60;95.80;;;;;;5054935;28;20120;-83
2022/02/16 00:27:33;;;;;;;15.63;11.55;;;5.60;95.90;;;;;;5069461;28;20120;-84
2022/02/16 00:29:59;;;;;;;13.32;9.90;;;5.60;95.90;;;;;;5067533;28;20554;-84
2022/02/16 00:32:24;;;;;;;15.13;10.55;;;5.60;96.00;;;;;;5069535;28;20063;-84
2022/02/16 00:34:50;;;;;;;14.73;9.70;;;5.60;96.10;;;;;;5068370;28;20074;-84
2022/02/16 00:37:15;;;;;;;14.60;10.10;;;5.60;96.20;;;;;;5069559;28;20480;-84
2022/02/16 00:39:41;;;;;;;13.02;9.35;;;5.60;96.20;;;;;;5057814;28;20376;-83
2022/02/16 00:42:07;;;;;;;14.73;9.52;;;5.60;96.20;;;;;;5065363;28;20546;-83
2022/02/16 00:44:33;;;;;;;13.88;8.50;;;5.60;96.30;;;;;;5081259;28;20111;-83
2022/02/16 00:46:58;;;;;;;12.57;9.13;;;5.60;96.30;;;;;;5068731;28;20085;-83
2022/02/16 00:49:24;;;;;;;12.68;8.60;;;5.60;96.30;;;;;;5067561;28;20021;-84
2022/02/16 00:51:49;;;;;;;11.75;8.05;;;5.60;96.40;;;;;;5070301;28;20049;-84
2022/02/16 00:54:15;;;;;;;12.45;7.97;;;5.60;96.40;;;;;;5067959;28;20073;-84
2022/02/16 00:56:40;;;;;;;13.25;8.85;;;5.70;96.50;;;;;;5068491;28;20024;-83
2022/02/16 00:59:06;;;;;;;13.85;8.57;;;5.60;96.50;;;;;;5070853;28;20024;-84
2022/02/16 01:01:32;;;;;;;15.25;9.00;;;5.70;96.60;;;;;;5078435;28;20044;-84
2022/02/16 01:03:57;;;;;;;13.95;9.77;;;5.60;96.50;;;;;;5068393;28;20067;-83
2022/02/16 01:06:23;;;;;;;12.88;8.73;;;5.70;96.60;;;;;;5069159;28;20119;-83
2022/02/16 01:08:48;;;;;;;14.57;9.80;;;5.60;96.60;;;;;;5070706;28;20396;-83
2022/02/16 01:11:14;;;;;;;15.45;10.43;;;5.60;96.60;;;;;;5071396;28;20036;-84
2022/02/16 01:13:40;;;;;;;14.30;8.98;;;5.70;96.60;;;;;;5071384;28;20020;-84
2022/02/16 01:16:06;;;;;;;13.82;9.38;;;5.70;96.70;;;;;;5068424;28;20047;-84
2022/02/16 01:18:31;;;;;;;14.85;9.73;;;5.60;96.70;;;;;;5077650;28;20487;-84
2022/02/16 01:20:57;;;;;;;13.88;9.32;;;5.70;96.70;;;;;;5072381;28;20115;-84
2022/02/16 01:23:23;;;;;;;12.75;9.32;;;5.70;96.80;;;;;;5072569;28;20037;-84
2022/02/16 01:25:48;;;;;;;15.13;9.27;;;5.70;96.80;;;;;;5067943;28;20037;-84
2022/02/16 01:28:14;;;;;;;14.05;9.77;;;5.70;96.80;;;;;;5073616;28;20033;-84
2022/02/16 01:30:39;;;;;;;13.68;9.18;;;5.70;96.90;;;;;;5068802;28;20449;-84
2022/02/16 01:33:05;;;;;;;14.52;9.85;;;5.70;96.90;;;;;;5070035;28;20028;-84
2022/02/16 01:35:31;;;;;;;13.77;9.45;;;5.80;96.90;;;;;;5067558;28;20028;-84
2022/02/16 01:37:56;;;;;;;18.50;11.32;;;5.80;96.90;;;;;;5069703;28;20029;-84
2022/02/16 01:40:22;;;;;;;18.77;12.07;;;5.80;96.90;;;;;;5071855;28;20455;-84
2022/02/16 01:42:48;;;;;;;18.70;12.18;;;5.80;96.90;;;;;;5072487;28;20040;-84
2022/02/16 01:45:13;;;;;;;20.42;13.52;;;5.90;97.00;;;;;;5069511;28;20436;-84
2022/02/16 01:47:40;;;;;;;20.48;13.75;;;5.90;97.00;;;;;;5070151;28;20029;-84
2022/02/16 01:50:07;;;;;;;20.65;14.70;;;6.00;97.00;;;;;;5070429;28;20465;-84
2022/02/16 01:52:33;;;;;;;23.20;14.32;;;6.00;97.00;;;;;;5077309;28;20047;-84
2022/02/16 01:54:59;;;;;;;18.08;12.90;;;6.00;97.00;;;;;;5073883;28;20067;-84
2022/02/16 01:57:24;;;;;;;19.38;13.85;;;6.10;97.00;;;;;;5071264;28;20028;-85
2022/02/16 01:59:52;;;;;;;19.98;13.68;;;6.10;97.00;;;;;;5070760;28;20036;-84
2022/02/16 02:02:17;;;;;;;19.45;13.35;;;6.10;96.90;;;;;;5069645;28;20028;-84
2022/02/16 02:04:43;;;;;;;20.80;13.25;;;6.10;96.90;;;;;;5069408;28;20505;-84
2022/02/16 02:07:09;;;;;;;21.05;14.07;;;6.10;96.90;;;;;;5070867;28;20024;-84
2022/02/16 02:09:35;;;;;;;18.73;13.40;;;6.10;96.90;;;;;;5069899;28;20787;-84
2022/02/16 02:12:00;;;;;;;18.25;12.95;;;6.10;96.90;;;;;;5071619;28;20032;-84
2022/02/16 02:14:26;;;;;;;20.15;13.70;;;6.10;96.90;;;;;;5069733;28;20174;-84
2022/02/16 02:16:52;;;;;;;18.65;12.20;;;6.10;96.90;;;;;;5069245;28;20039;-84
2022/02/16 02:19:17;;;;;;;17.23;13.30;;;6.10;96.90;;;;;;5068525;28;20031;-84
2022/02/16 02:21:46;;;;;;;19.20;13.38;;;6.20;96.90;;;;;;5071719;28;20083;-84
2022/02/16 02:24:12;;;;;;;20.02;13.40;;;6.20;96.90;;;;;;5070379;28;20041;-84
2022/02/16 02:26:37;;;;;;;17.92;12.80;;;6.20;96.90;;;;;;5071677;28;20468;-84
2022/02/16 02:29:03;;;;;;;19.00;13.73;;;6.10;96.90;;;;;;5071902;28;20817;-84
2022/02/16 02:31:35;;;;;;;19.58;13.07;;;6.20;96.90;;;;;;5062241;28;20112;-84
2022/02/16 02:34:01;;;;;;;17.60;12.20;;;6.20;96.90;;;;;;5070565;28;20036;-84
2022/02/16 02:36:27;;;;;;;18.65;13.10;;;6.20;96.90;;;;;;5069914;28;20029;-84
2022/02/16 02:38:53;;;;;;;17.92;12.73;;;6.20;96.90;;;;;;5071013;28;20032;-84
2022/02/16 02:41:19;;;;;;;17.85;12.80;;;6.20;96.90;;;;;;5065642;28;20035;-84
2022/02/16 02:43:46;;;;;;;21.00;13.77;;;6.20;96.90;;;;;;5078633;28;20063;-84
2022/02/16 02:46:12;;;;;;;20.80;13.82;;;6.20;96.80;;;;;;5071955;28;21316;-84
2022/02/16 02:48:38;;;;;;;21.48;13.68;;;6.20;96.90;;;;;;5063614;28;20025;-84
2022/02/16 02:51:03;;;;;;;22.40;14.05;;;6.20;96.90;;;;;;5078126;28;20395;-84
2022/02/16 02:53:29;;;;;;;21.48;13.38;;;6.20;96.90;;;;;;5063613;28;20039;-84
2022/02/16 02:55:55;;;;;;;21.75;13.77;;;6.20;96.80;;;;;;5064223;28;20033;-84
2022/02/16 02:58:20;;;;;;;19.55;14.00;;;6.30;96.80;;;;;;5066029;28;20447;-84
2022/02/16 03:00:46;;;;;;;19.52;13.73;;;6.30;96.80;;;;;;5067508;28;20028;-84
2022/02/16 03:03:12;;;;;;;20.40;14.02;;;6.30;96.80;;;;;;5054974;28;20021;-84
2022/02/16 03:05:37;;;;;;;21.40;13.35;;;6.20;96.80;;;;;;5061433;28;20044;-84
2022/02/16 03:08:04;;;;;;;19.25;12.40;;;6.20;96.80;;;;;;5067353;28;20520;-84
2022/02/16 03:10:30;;;;;;;20.05;13.00;;;6.30;96.90;;;;;;5078485;28;20048;-84
2022/02/16 03:12:55;;;;;;;19.83;13.73;;;6.30;96.80;;;;;;5061748;28;20161;-84
2022/02/16 03:15:21;;;;;;;18.80;12.85;;;6.20;96.80;;;;;;5055687;28;20025;-84
2022/02/16 03:17:46;;;;;;;15.63;11.10;;;6.20;96.80;;;;;;5069292;28;20024;-84
2022/02/16 03:20:12;;;;;;;15.73;10.63;;;6.30;96.90;;;;;;5068649;28;20024;-84
2022/02/16 03:22:38;;;;;;;15.93;11.02;;;6.30;96.90;;;;;;5070022;28;20047;-84
2022/02/16 03:25:08;;;;;;;15.73;10.82;;;6.30;96.90;;;;;;5068152;28;20449;-83
2022/02/16 03:27:34;;;;;;;14.47;9.90;;;6.20;96.90;;;;;;5069110;28;20130;-84
2022/02/16 03:30:00;;;;;;;15.50;10.85;;;6.20;96.90;;;;;;5068262;28;20058;-84
2022/02/16 03:32:26;;;;;;;16.92;10.45;;;6.20;96.90;;;;;;5067744;28;20036;-84
2022/02/16 03:34:52;;;;;;;14.43;9.55;;;6.30;97.00;;;;;;5079050;28;20419;-84
2022/02/16 03:37:17;;;;;;;12.93;9.30;;;6.30;97.00;;;;;;5068015;28;20036;-84
2022/02/16 03:39:44;;;;;;;15.73;10.63;;;6.30;97.00;;;;;;5068203;28;20028;-83
2022/02/16 03:42:10;;;;;;;15.23;10.27;;;6.30;97.00;;;;;;5063220;28;20028;-84
2022/02/16 03:44:35;;;;;;;15.45;10.25;;;6.30;97.00;;;;;;5059891;28;20082;-84
2022/02/16 03:47:01;;;;;;;17.30;11.05;;;6.30;97.00;;;;;;5062416;28;20037;-84
2022/02/16 03:49:28;;;;;;;15.32;10.50;;;6.30;97.00;;;;;;5069919;28;20082;-84
2022/02/16 03:51:53;;;;;;;19.20;11.93;;;6.30;97.00;;;;;;5071714;28;20078;-84
2022/02/16 03:54:19;;;;;;;19.58;12.73;;;6.30;97.00;;;;;;5067917;28;20029;-84
2022/02/16 03:56:45;;;;;;;19.42;13.15;;;6.30;97.10;;;;;;5064772;28;20489;-84
2022/02/16 03:59:11;;;;;;;21.42;12.70;;;6.30;97.00;;;;;;5082563;28;20541;-84
2022/02/16 04:01:36;;;;;;;23.23;14.70;;;6.30;97.10;;;;;;5063066;28;20035;-84
2022/02/16 04:04:02;;;;;;;20.50;13.63;;;6.30;97.00;;;;;;5064821;28;20041;-84
2022/02/16 04:06:28;;;;;;;23.80;15.75;;;6.40;97.00;;;;;;5068558;28;20040;-84
2022/02/16 04:08:53;;;;;;;20.90;14.55;;;6.40;97.00;;;;;;5069514;28;20025;-84
2022/02/16 04:11:20;;;;;;;22.05;15.57;;;6.40;96.90;;;;;;5067804;28;20062;-84
2022/02/16 04:13:47;;;;;;;21.10;15.15;;;6.40;96.90;;;;;;5068351;28;20024;-84
2022/02/16 04:16:13;;;;;;;22.50;15.63;;;6.40;96.90;;;;;;5060523;28;20060;-84
2022/02/16 04:18:39;;;;;;;26.58;16.20;;;6.50;96.90;;;;;;5069111;28;20138;-84
2022/02/16 04:21:05;;;;;;;26.00;16.60;;;6.40;96.90;;;;;;5069203;28;20025;-84
2022/02/16 04:23:30;;;;;;;25.80;15.82;;;6.40;96.90;;;;;;5068137;28;20049;-84
2022/02/16 04:25:56;;;;;;;26.15;16.00;;;6.40;96.90;;;;;;5068864;28;20025;-84
2022/02/16 04:28:23;;;;;;;22.85;15.60;;;6.40;96.90;;;;;;5061162;28;20056;-84
2022/02/16 04:30:49;;;;;;;23.25;15.48;;;6.40;96.90;;;;;;5047359;28;20408;-84
2022/02/16 04:33:15;;;;;;;23.80;15.25;;;6.40;96.90;;;;;;5081576;28;20032;-84
2022/02/16 04:35:41;;;;;;;23.30;14.73;;;6.40;96.90;;;;;;5052467;28;20392;-84
2022/02/16 04:38:07;;;;;;;21.65;14.93;;;6.40;96.90;;;;;;5079117;28;20028;-84
2022/02/16 04:40:32;;;;;;;20.55;13.55;;;6.40;96.90;;;;;;5072869;28;20023;-84
2022/02/16 04:42:58;;;;;;;20.52;13.05;;;6.40;96.90;;;;;;5068121;28;20108;-84
2022/02/16 04:45:23;;;;;;;20.20;11.98;;;6.30;96.90;;;;;;5064724;28;20083;-84
2022/02/16 04:47:49;;;;;;;16.45;10.65;;;6.30;96.90;;;;;;5064406;28;20017;-86
2022/02/16 04:50:15;;;;;;;19.10;11.65;;;6.30;96.90;;;;;;5083271;28;20032;-86
2022/02/16 04:52:41;;;;;;;18.25;11.80;;;6.30;96.90;;;;;;5067052;28;20025;-86
2022/02/16 04:55:09;;;;;;;16.63;10.50;;;6.30;96.90;;;;;;5060757;28;20021;-86
2022/02/16 04:57:35;;;;;;;16.55;10.10;;;6.30;97.00;;;;;;5069896;28;20064;-86
2022/02/16 05:00:03;;;;;;;16.35;9.38;;;6.30;97.00;;;;;;5064717;28;20441;-85
2022/02/16 05:02:28;;;;;;;15.20;8.82;;;6.30;97.00;;;;;;5071374;28;20507;-86
2022/02/16 05:04:54;;;;;;;13.40;8.07;;;6.20;97.00;;;;;;5071430;28;20048;-86
2022/02/16 05:07:21;;;;;;;15.68;8.90;;;6.20;97.00;;;;;;5063824;28;20032;-84
2022/02/16 05:09:46;;;;;;;12.85;8.02;;;6.20;97.00;;;;;;5053817;28;20032;-84
2022/02/16 05:12:12;;;;;;;13.98;8.00;;;6.20;97.00;;;;;;5072040;28;20029;-84
2022/02/16 05:14:38;;;;;;;13.30;7.72;;;6.20;97.00;;;;;;5064884;28;20025;-84
2022/02/16 05:17:04;;;;;;;13.60;8.00;;;6.20;97.00;;;;;;5064843;28;20025;-84
2022/02/16 05:19:29;;;;;;;11.65;7.78;;;6.20;97.00;;;;;;5070684;28;20081;-83
2022/02/16 05:21:55;;;;;;;15.80;8.57;;;6.20;97.00;;;;;;5070874;28;20028;-83
2022/02/16 05:24:21;;;;;;;12.75;8.02;;;6.20;97.00;;;;;;5070694;28;20037;-84
2022/02/16 05:26:47;;;;;;;12.48;8.25;;;6.20;97.10;;;;;;5082963;28;20028;-84
2022/02/16 05:29:13;;;;;;;13.70;8.38;;;6.20;97.00;;;;;;5072100;28;20016;-84
2022/02/16 05:31:38;;;;;;;17.40;8.95;;;6.10;97.10;;;;;;5070735;28;20095;-83
2022/02/16 05:34:04;;;;;;;13.68;8.85;;;6.20;97.10;;;;;;5086343;28;20036;-83
2022/02/16 05:36:29;;;;;;;17.27;9.32;;;6.10;97.10;;;;;;5069450;28;20094;-83
2022/02/16 05:38:55;;;;;;;15.45;9.82;;;6.10;97.10;;;;;;5063112;28;20032;-83
2022/02/16 05:41:21;;;;;;;13.35;8.75;;;6.10;97.10;;;;;;5069506;28;20028;-85
2022/02/16 05:43:46;;;;;;;14.27;9.55;;;6.10;97.10;;;;;;5070887;28;20040;-84
2022/02/16 05:46:12;;;;;;;16.27;9.63;;;6.20;97.10;;;;;;5069296;28;20176;-83
2022/02/16 05:48:38;;;;;;;14.05;9.50;;;6.10;97.10;;;;;;5070968;28;20516;-86
2022/02/16 05:51:04;;;;;;;13.82;9.60;;;6.10;97.10;;;;;;5082596;28;20028;-84
2022/02/16 05:53:29;;;;;;;13.70;9.27;;;6.20;97.10;;;;;;5065172;28;20630;-84
2022/02/16 05:55:55;;;;;;;14.65;9.88;;;6.20;97.10;;;;;;5066226;28;20098;-84
2022/02/16 05:58:21;;;;;;;13.50;8.93;;;6.20;97.10;;;;;;5070470;28;20024;-84
2022/02/16 06:00:46;;;;;;;12.95;8.60;;;6.20;97.10;;;;;;5067862;28;20447;-84
2022/02/16 06:03:12;;;;;;;13.80;9.10;;;6.20;97.10;;;;;;5068949;28;20107;-83
2022/02/16 06:05:37;;;;;;;13.32;8.82;;;6.20;97.10;;;;;;5069900;28;20037;-83
2022/02/16 06:08:03;;;;;;;12.73;8.20;;;6.20;97.10;;;;;;5074268;28;20043;-84
2022/02/16 06:10:30;;;;;;;12.20;7.93;;;6.30;97.10;;;;;;5067647;28;20079;-84
2022/02/16 06:12:57;;;;;;;15.82;8.85;;;6.30;97.10;;;;;;5071061;28;20056;-83
2022/02/16 06:15:23;;;;;;;14.30;7.85;;;6.30;97.10;;;;;;5068999;28;20460;-83
2022/02/16 06:17:49;;;;;;;14.95;9.15;;;6.30;97.10;;;;;;5060644;28;20082;-83
2022/02/16 06:20:14;;;;;;;13.45;8.32;;;6.30;97.10;;;;;;5070966;28;20492;-84
2022/02/16 06:22:40;;;;;;;11.65;7.85;;;6.30;97.10;;;;;;5070010;28;20028;-83
2022/02/16 06:25:06;;;;;;;13.07;8.75;;;6.30;97.10;;;;;;5068171;28;20447;-83
2022/02/16 06:27:32;;;;;;;13.95;8.55;;;6.30;97.10;;;;;;5061290;28;20025;-83
2022/02/16 06:29:58;;;;;;;13.43;8.32;;;6.40;97.10;;;;;;5068992;28;20029;-83
2022/02/16 06:32:23;;;;;;;12.18;7.93;;;6.40;97.10;;;;;;5066649;28;20128;-83
2022/02/16 06:34:49;;;;;;;14.75;9.80;;;6.40;97.10;;;;;;5067973;28;20025;-83
2022/02/16 06:37:14;;;;;;;12.85;8.52;;;6.40;97.10;;;;;;5058518;28;20032;-83
2022/02/16 06:39:40;;;;;;;13.20;8.50;;;6.50;97.10;;;;;;5070148;28;20135;-83
2022/02/16 06:42:06;;;;;;;14.52;9.02;;;6.50;97.10;;;;;;5081507;28;20178;-83
2022/02/16 06:44:32;;;;;;;14.45;9.70;;;6.40;97.10;;;;;;5064818;28;20043;-83
2022/02/16 06:46:58;;;;;;;12.77;8.68;;;6.50;97.10;;;;;;5065820;28;20067;-83
2022/02/16 06:49:23;;;;;;;13.57;8.57;;;6.50;97.10;;;;;;5071210;28;20083;-83
2022/02/16 06:51:50;;;;;;;12.38;8.60;;;6.50;97.10;;;;;;5069738;28;20070;-83
2022/02/16 06:54:15;;;;;;;13.65;9.38;;;6.50;97.10;;;;;;5069356;28;20033;-83
2022/02/16 06:56:41;;;;;;;13.43;9.13;;;6.50;97.10;;;;;;5069797;28;20024;-83
2022/02/16 06:59:06;;;;;;;14.50;9.20;;;6.50;97.10;;;;;;5070548;28;20044;-83
2022/02/16 07:01:32;;;;;;;12.68;7.88;;;6.50;97.10;;;;;;5068172;28;20118;-83
2022/02/16 07:03:57;;;;;;;14.73;9.65;;;6.60;97.10;;;;;;5063286;28;20041;-83
2022/02/16 07:06:23;;;;;;;13.88;8.95;;;6.60;97.10;;;;;;5079030;28;20480;-84
2022/02/16 07:08:48;;;;;;;13.35;8.48;;;6.60;97.20;;;;;;5067684;28;20024;-83
2022/02/16 07:11:14;;;;;;;13.13;8.57;;;6.60;97.10;;;;;;5069089;28;20419;-83
2022/02/16 07:13:39;;;;;;;12.70;8.73;;;6.60;97.20;;;;;;5057846;28;20208;-83
2022/02/16 07:16:05;;;;;;;13.27;8.63;;;6.60;97.20;;;;;;5070316;28;20027;-83
2022/02/16 07:18:33;;;;;;;12.02;7.95;;;6.60;97.20;;;;;;5067683;28;20078;-83
2022/02/16 07:20:59;;;;;;;12.68;7.97;;;6.70;97.20;;;;;;5067145;28;20090;-84
2022/02/16 07:23:25;;;;;;;10.23;6.35;;;6.70;97.10;;;;;;5067057;28;20389;-84
2022/02/16 07:25:50;;;;;;;13.43;8.88;;;6.70;97.10;;;;;;5069438;28;20029;-84
2022/02/16 07:28:17;;;;;;;13.80;8.30;;;6.70;97.10;;;;;;5069526;28;20063;-84
2022/02/16 07:30:48;;;;;;;12.82;7.60;;;6.70;97.10;;;;;;5066073;28;20029;-84
2022/02/16 07:33:14;;;;;;;13.82;8.38;;;6.80;97.10;;;;;;5069163;28;20028;-84
2022/02/16 07:35:40;;;;;;;13.73;9.32;;;6.80;97.10;;;;;;5069353;28;20031;-83
2022/02/16 07:38:06;;;;;;;12.30;8.27;;;6.80;97.10;;;;;;5068792;28;20021;-84
2022/02/16 07:40:31;;;;;;;13.98;9.02;;;6.80;97.10;;;;;;5069808;28;20029;-84
2022/02/16 07:42:59;;;;;;;13.57;8.80;;;6.80;97.10;;;;;;5068688;28;20030;-84
2022/02/16 07:45:25;;;;;;;13.35;8.77;;;6.80;97.00;;;;;;5061345;28;20460;-84
2022/02/16 07:47:50;;;;;;;12.65;8.60;;;6.80;97.00;;;;;;5066144;28;20108;-84
2022/02/16 07:50:16;;;;;;;11.32;7.63;;;6.80;97.00;;;;;;5068476;28;20480;-84
2022/02/16 07:52:42;;;;;;;12.95;8.45;;;6.90;97.00;;;;;;5069635;28;20477;-84
2022/02/16 07:55:08;;;;;;;11.77;7.93;;;6.90;97.00;;;;;;5069903;28;20119;-84
2022/02/16 07:57:33;;;;;;;11.98;7.57;;;6.90;96.90;;;;;;5066204;28;20381;-84
2022/02/16 07:59:59;;;;;;;10.88;7.25;;;6.90;96.90;;;;;;5063748;28;20035;-83
2022/02/16 08:02:25;;;;;;;9.43;6.82;;;6.90;96.80;;;;;;5068267;28;20032;-84
2022/02/16 08:04:50;;;;;;;10.85;7.28;;;6.90;96.90;;;;;;5067576;28;20123;-84
2022/02/16 08:07:16;;;;;;;11.30;7.53;;;6.90;96.80;;;;;;5086220;28;20119;-84
2022/02/16 08:09:41;;;;;;;10.25;7.30;;;6.90;96.90;;;;;;5069747;28;20026;-84
2022/02/16 08:12:07;;;;;;;9.05;6.55;;;6.90;96.90;;;;;;5068940;28;20073;-84
2022/02/16 08:14:33;;;;;;;9.30;6.55;;;7.00;96.80;;;;;;5069748;28;20063;-84
2022/02/16 08:17:02;;;;;;;12.13;6.60;;;7.00;96.80;;;;;;5067275;28;20074;-84
2022/02/16 08:19:28;;;;;;;9.45;6.43;;;7.00;96.80;;;;;;5068181;28;20054;-84
2022/02/16 08:21:57;;;;;;;9.55;6.68;;;7.00;96.80;;;;;;5068910;28;20047;-84
2022/02/16 08:24:24;;;;;;;8.95;6.65;;;7.00;96.80;;;;;;5068980;28;20028;-84
2022/02/16 08:26:50;;;;;;;9.93;6.78;;;7.00;96.80;;;;;;5064603;28;20485;-84
2022/02/16 08:29:15;;;;;;;9.20;6.40;;;7.00;96.80;;;;;;5069631;28;20024;-84
2022/02/16 08:31:42;;;;;;;9.20;6.38;;;7.00;96.80;;;;;;5067116;28;20070;-84
2022/02/16 08:34:08;;;;;;;10.20;6.07;;;7.00;96.80;;;;;;5067789;28;20116;-84
2022/02/16 08:36:34;;;;;;;8.55;5.80;;;7.00;96.80;;;;;;5068946;28;20664;-84
2022/02/16 08:39:00;;;;;;;11.35;5.88;;;7.10;96.80;;;;;;5067341;28;20078;-84
2022/02/16 08:41:25;;;;;;;8.15;5.70;;;7.10;96.80;;;;;;5067680;28;20445;-84
2022/02/16 08:43:51;;;;;;;8.77;6.30;;;7.10;96.80;;;;;;5068516;28;20028;-83
2022/02/16 08:46:17;;;;;;;8.40;5.90;;;7.10;96.80;;;;;;5065988;28;20466;-84
2022/02/16 08:48:43;;;;;;;10.20;5.97;;;7.10;96.90;;;;;;5060728;28;20502;-83
2022/02/16 08:51:10;;;;;;;7.90;5.53;;;7.20;96.90;;;;;;5068892;28;20384;-83
2022/02/16 08:53:36;;;;;;;8.88;5.70;;;7.20;96.90;;;;;;5066859;28;20032;-84
2022/02/16 08:56:02;;;;;;;8.10;5.45;;;7.20;96.90;;;;;;5065209;28;20029;-84
2022/02/16 08:58:28;;;;;;;9.82;5.45;;;7.20;96.80;;;;;;5069652;28;20035;-84
2022/02/16 09:00:57;;;;;;;10.35;5.40;;;7.30;96.80;;;;;;5081593;28;20047;-84
2022/02/16 09:03:27;;;;;;;6.88;4.20;;;7.30;96.80;;;;;;5060936;28;20039;-84
2022/02/16 09:05:52;;;;;;;5.88;4.20;;;7.30;96.80;;;;;;5066846;28;20028;-84
2022/02/16 09:08:18;;;;;;;6.15;4.22;;;7.40;96.80;;;;;;5059578;28;20074;-82
2022/02/16 09:10:46;;;;;;;6.32;4.13;;;7.40;96.80;;;;;;5072591;28;20024;-83
2022/02/16 09:13:11;;;;;;;5.57;3.75;;;7.30;96.80;;;;;;5063236;28;20020;-83
2022/02/16 09:15:37;;;;;;;6.35;4.07;;;7.30;96.80;;;;;;5063107;28;20477;-84
2022/02/16 09:18:05;;;;;;;6.70;4.13;;;7.30;96.80;;;;;;5068994;28;20032;-83
2022/02/16 09:20:32;;;;;;;6.38;3.50;;;7.40;96.90;;;;;;5080460;28;20123;-84
2022/02/16 09:22:57;;;;;;;5.50;3.30;;;7.40;96.80;;;;;;5065924;28;20761;-83
2022/02/16 09:25:25;;;;;;;5.88;3.20;;;7.40;96.80;;;;;;5073673;28;20056;-83
2022/02/16 09:27:51;;;;;;;5.10;3.00;;;7.40;96.80;;;;;;5072088;28;20065;-84
2022/02/16 09:30:16;;;;;;;3.65;2.55;;;7.40;96.80;;;;;;5068873;28;20030;-84
2022/02/16 09:32:42;;;;;;;4.13;2.40;;;7.50;96.80;;;;;;5073639;28;20049;-84
2022/02/16 09:35:09;;;;;;;3.75;2.25;;;7.50;96.80;;;;;;5072809;28;20025;-84
2022/02/16 09:37:34;;;;;;;3.75;2.28;;;7.50;96.70;;;;;;5071995;28;20111;-84
2022/02/16 09:40:00;;;;;;;3.33;2.10;;;7.60;96.80;;;;;;5073413;28;20523;-84
2022/02/16 09:42:27;;;;;;;3.13;2.15;;;7.60;96.70;;;;;;5072620;28;20033;-84
2022/02/16 09:45:01;;;;;;;1.95;1.65;;;7.60;96.70;;;;;;5073654;28;20107;-84
2022/02/16 09:47:29;;;;;;;2.67;1.98;;;7.60;96.70;;;;;;5071837;28;20103;-84
2022/02/16 09:49:58;;;;;;;2.53;1.90;;;7.60;96.60;;;;;;5071380;28;20503;-83
2022/02/16 09:52:24;;;;;;;3.33;2.13;;;7.60;96.60;;;;;;5061983;28;20025;-83
2022/02/16 09:54:50;;;;;;;4.95;2.20;;;7.60;96.60;;;;;;5051629;28;20033;-83
2022/02/16 09:57:17;;;;;;;2.78;2.17;;;7.70;96.60;;;;;;5068039;28;20086;-84
2022/02/16 09:59:43;;;;;;;3.58;2.17;;;7.80;96.70;;;;;;5066233;28;20028;-83
2022/02/16 10:02:15;;;;;;;3.20;1.90;;;7.80;96.60;;;;;;5058462;28;20393;-83
2022/02/16 10:04:56;;;;;;;2.78;2.00;;;7.80;96.60;;;;;;5078774;28;20041;-83
2022/02/16 10:07:21;;;;;;;;;;;7.80;96.60;;;;;;5061528;28;20032;-83
2022/02/16 10:09:47;;;;;;;2.22;1.52;;;7.90;96.60;;;;;;5057713;28;19905;-83
2022/02/16 10:12:15;;;;;;;2.53;1.77;;;7.90;96.60;;;;;;5070489;28;20435;-83
2022/02/16 10:14:41;;;;;;;3.40;2.30;;;8.00;96.60;;;;;;5071812;28;20036;-83
2022/02/16 10:17:20;;;;;;;2.00;1.52;;;8.00;96.70;;;;;;5058942;28;20214;-83
2022/02/16 10:19:57;;;;;;;2.65;1.80;;;8.00;96.70;;;;;;5068811;28;20107;-83
2022/02/16 10:22:30;;;;;;;2.65;1.80;;;8.00;96.70;;;;;;5066288;28;20028;-83
2022/02/16 10:25:19;;;;;;;2.05;1.60;;;8.00;96.60;;;;;;5060505;28;20153;-83
2022/02/16 10:28:23;;;;;;;4.93;1.90;;;8.10;96.70;;;;;;5085239;28;20123;-83
2022/02/16 10:30:58;;;;;;;2.50;1.60;;;8.10;96.70;;;;;;4987945;28;20049;-83
2022/02/16 10:33:27;;;;;;;2.10;1.77;;;8.10;96.70;;;;;;5009017;28;20048;-84
2022/02/16 10:36:07;;;;;;;3.17;2.10;;;8.10;96.70;;;;;;5031189;28;20036;-83
2022/02/16 10:38:51;;;;;;;4.07;1.80;;;8.20;96.70;;;;;;5062159;28;20353;-84
2022/02/16 10:41:17;;;;;;;2.08;1.35;;;8.20;96.70;;;;;;5067443;28;20025;-83
2022/02/16 10:43:43;;;;;;;3.50;1.90;;;8.30;96.70;;;;;;5071101;28;20082;-83
2022/02/16 10:46:22;;;;;;;4.47;2.28;;;8.30;96.70;;;;;;5065750;28;20048;-83
2022/02/16 10:49:08;;;;;;;1.48;1.20;;;8.30;96.70;;;;;;5063786;28;20059;-83
2022/02/16 10:51:34;;;;;;;4.40;2.15;;;8.40;96.70;;;;;;5066849;28;20031;-83
2022/02/16 10:54:19;;;;;;;3.00;2.13;;;8.40;96.80;;;;;;5060993;28;20024;-83
2022/02/16 10:56:51;;;;;;;3.08;2.17;;;8.50;96.80;;;;;;5074101;28;20411;-83
2022/02/16 10:59:17;;;;;;;2.55;2.05;;;8.60;96.80;;;;;;5058730;28;20388;-83
2022/02/16 11:01:43;;;;;;;3.15;2.10;;;8.60;96.70;;;;;;5058992;28;20024;-83
2022/02/16 11:04:13;;;;;;;3.35;2.13;;;8.60;96.80;;;;;;5070109;28;20049;-83
2022/02/16 11:06:43;;;;;;;2.75;1.95;;;8.70;96.70;;;;;;5070507;28;20031;-83
2022/02/16 11:09:17;;;;;;;3.03;2.10;;;8.70;96.80;;;;;;5067495;28;20035;-84
2022/02/16 11:11:45;;;;;;;3.22;2.38;;;8.80;96.90;;;;;;5050624;28;20440;-84
2022/02/16 11:14:11;;;;;;;3.67;2.42;;;8.70;96.90;;;;;;5065400;28;20036;-83
2022/02/16 11:16:38;;;;;;;3.13;2.30;;;8.80;96.90;;;;;;5068456;28;20036;-83
2022/02/16 11:19:27;;;;;;;3.85;2.75;;;8.90;96.80;;;;;;5057358;28;20033;-84
2022/02/16 11:22:06;;;;;;;3.20;2.10;;;9.00;96.90;;;;;;5066851;28;20020;-84
2022/02/16 11:24:41;;;;;;;3.00;2.10;;;9.00;96.90;;;;;;5061566;28;20025;-84
2022/02/16 11:27:36;;;;;;;3.67;2.40;;;9.00;96.80;;;;;;5064860;28;20021;-84
2022/02/16 11:30:08;;;;;;;2.92;2.28;;;9.00;96.90;;;;;;5065610;28;20024;-83
2022/02/16 11:32:42;;;;;;;3.75;2.40;;;9.00;96.90;;;;;;5066301;28;20079;-84
2022/02/16 11:35:29;;;;;;;3.90;2.53;;;9.10;96.90;;;;;;5066919;28;20404;-84
2022/02/16 11:38:07;;;;;;;2.95;2.10;;;9.10;97.00;;;;;;5068301;28;20107;-83
2022/02/16 11:40:40;;;;;;;3.72;2.42;;;9.20;97.00;;;;;;5063951;28;20101;-86
2022/02/16 11:43:07;;;;;;;4.78;2.67;;;9.20;97.00;;;;;;5059546;28;20086;-84
2022/02/16 11:45:51;;;;;;;3.08;2.42;;;9.20;97.00;;;;;;5065436;28;20059;-83
2022/02/16 11:48:37;;;;;;;4.20;2.53;;;9.30;97.10;;;;;;5062541;28;20024;-83
2022/02/16 11:51:26;;;;;;;3.95;2.67;;;9.30;97.10;;;;;;5075947;28;20449;-84
2022/02/16 11:53:52;;;;;;;4.18;2.67;;;9.40;97.10;;;;;;5067344;28;20407;-83
2022/02/16 11:56:21;;;;;;;3.95;2.67;;;9.40;97.10;;;;;;5055411;28;20032;-83
2022/02/16 11:59:11;;;;;;;3.33;2.30;;;9.50;97.10;;;;;;5068004;28;20528;-83
2022/02/16 12:02:07;;;;;;;3.50;2.35;;;9.50;97.10;;;;;;5057838;28;20028;-83
2022/02/16 12:04:54;;;;;;;3.22;2.47;;;9.60;97.10;;;;;;5061354;28;20045;-84
2022/02/16 12:07:28;;;;;;;3.50;2.15;;;9.60;97.10;;;;;;5063391;28;20404;-83
2022/02/16 12:10:22;;;;;;;3.60;2.50;;;9.60;97.10;;;;;;5067375;28;20086;-83
2022/02/16 12:12:48;;;;;;;3.13;2.17;;;9.60;97.10;;;;;;5057971;28;20078;-83
2022/02/16 12:15:18;;;;;;;2.05;1.45;;;9.70;97.10;;;;;;5064706;28;20453;-83
2022/02/16 12:17:44;;;;;;;2.83;2.15;;;9.70;97.10;;;;;;5064537;28;20448;-83
2022/02/16 12:20:10;;;;;;;4.75;2.30;;;9.70;97.10;;;;;;5063781;28;20063;-83
2022/02/16 12:22:36;;;;;;;3.15;1.88;;;9.70;97.10;;;;;;5070398;28;20028;-82
2022/02/16 12:25:14;;;;;;;3.20;2.00;;;9.80;97.10;;;;;;5062310;28;20028;-82
2022/02/16 12:27:40;;;;;;;3.38;2.20;;;9.80;97.10;;;;;;5067939;28;20021;-82
2022/02/16 12:30:06;;;;;;;1.30;0.75;;;9.80;97.10;;;;;;5068060;28;20420;-83
2022/02/16 12:32:31;;;;;;;0.13;0.13;;;9.80;97.10;;;;;;5075238;28;20029;-82
2022/02/16 12:34:57;;;;;;;0.10;0.10;;;9.90;97.10;;;;;;5066428;28;20025;-84
2022/02/16 12:37:23;;;;;;;0.05;0.05;;;9.90;97.10;;;;;;5058768;28;20503;-84
2022/02/16 12:39:55;;;;;;;0.10;0.10;;;10.00;97.00;;;;;;5072721;28;20036;-84
2022/02/16 12:42:33;;;;;;;0.52;0.38;;;10.00;96.90;;;;;;5068035;28;20025;-87
2022/02/16 12:44:59;;;;;;;0.10;0.10;;;10.00;96.90;;;;;;5065632;28;20029;-84
2022/02/16 12:47:25;;;;;;;0.30;0.30;;;10.10;96.80;;;;;;5068229;28;20109;-84
2022/02/16 12:49:52;;;;;;;0.10;0.10;;;10.10;96.80;;;;;;5066336;28;20031;-85